sensor_id;sensor_type;location;lat;lon;timestamp;temperature;humidity
17565;DHT22;62994;52.126;5.596;2023-03-16T00:00:12;6.60;99.90
17565;DHT22;62994;52.126;5.596;2023-03-16T00:02:47;6.60;99.90
17565;DHT22;62994;52.126;5.596;2023-03-16T00:05:14;6.60;99.90
17565;DHT22;62994;52.126;5.596;2023-03-16T00:07:43;6.60;99.90
17565;DHT22;62994;52.126;5.596;2023-03-16T00:10:11;6.60;99.90
17565;DHT22;62994;52.126;5.596;2023-03-16T00:12:39;6.60;99.90
17565;DHT22;62994;52.126;5.596;2023-03-16T00:15:08;6.60;99.90
17565;DHT22;62994;52.126;5.596;2023-03-16T00:17:36;6.60;99.90
17565;DHT22;62994;52.126;5.596;2023-03-16T00:20:04;6.60;99.90
17565;DHT22;62994;52.126;5.596;2023-03-16T00:22:32;6.60;99.90
17565;DHT22;62994;52.126;5.596;2023-03-16T00:25:01;6.60;99.90
17565;DHT22;62994;52.126;5.596;2023-03-16T00:27:29;6.60;99.90
17565;DHT22;62994;52.126;5.596;2023-03-16T00:30:00;6.60;99.90
17565;DHT22;62994;52.126;5.596;2023-03-16T00:32:29;6.60;99.90
17565;DHT22;62994;52.126;5.596;2023-03-16T00:34:57;6.60;99.90
17565;DHT22;62994;52.126;5.596;2023-03-16T00:37:31;6.60;99.90
17565;DHT22;62994;52.126;5.596;2023-03-16T00:40:00;6.60;99.90
17565;DHT22;62994;52.126;5.596;2023-03-16T00:42:34;6.60;99.90
17565;DHT22;62994;52.126;5.596;2023-03-16T00:45:07;6.50;99.90
17565;DHT22;62994;52.126;5.596;2023-03-16T00:47:34;6.60;99.90
17565;DHT22;62994;52.126;5.596;2023-03-16T00:50:02;6.50;99.90
17565;DHT22;62994;52.126;5.596;2023-03-16T00:52:29;6.50;99.90
17565;DHT22;62994;52.126;5.596;2023-03-16T00:54:56;6.50;99.90
17565;DHT22;62994;52.126;5.596;2023-03-16T00:57:25;6.50;99.90
17565;DHT22;62994;52.126;5.596;2023-03-16T00:59:54;6.50;99.90
17565;DHT22;62994;52.126;5.596;2023-03-16T01:02:22;6.50;99.90
17565;DHT22;62994;52.126;5.596;2023-03-16T01:05:01;6.50;99.90
17565;DHT22;62994;52.126;5.596;2023-03-16T01:07:39;6.50;99.90
17565;DHT22;62994;52.126;5.596;2023-03-16T01:10:09;6.50;99.90
17565;DHT22;62994;52.126;5.596;2023-03-16T01:12:37;6.50;99.90
17565;DHT22;62994;52.126;5.596;2023-03-16T01:15:10;6.50;99.90
17565;DHT22;62994;52.126;5.596;2023-03-16T01:17:44;6.50;99.90
17565;DHT22;62994;52.126;5.596;2023-03-16T01:20:11;6.50;99.90
17565;DHT22;62994;52.126;5.596;2023-03-16T01:22:40;6.50;99.90
17565;DHT22;62994;52.126;5.596;2023-03-16T01:25:10;6.50;99.90
17565;DHT22;62994;52.126;5.596;2023-03-16T01:27:40;6.50;99.90
17565;DHT22;62994;52.126;5.596;2023-03-16T01:30:09;6.50;99.90
17565;DHT22;62994;52.126;5.596;2023-03-16T01:32:37;6.50;99.90
17565;DHT22;62994;52.126;5.596;2023-03-16T01:35:05;6.50;99.90
17565;DHT22;62994;52.126;5.596;2023-03-16T01:37:32;6.50;99.90
17565;DHT22;62994;52.126;5.596;2023-03-16T01:39:59;6.50;99.90
17565;DHT22;62994;52.126;5.596;2023-03-16T01:42:28;6.50;99.90
17565;DHT22;62994;52.126;5.596;2023-03-16T01:45:01;6.50;99.90
17565;DHT22;62994;52.126;5.596;2023-03-16T01:47:31;6.50;99.90
17565;DHT22;62994;52.126;5.596;2023-03-16T01:50:03;6.50;99.90
17565;DHT22;62994;52.126;5.596;2023-03-16T01:52:38;6.40;99.90
17565;DHT22;62994;52.126;5.596;2023-03-16T01:55:07;6.50;99.90
17565;DHT22;62994;52.126;5.596;2023-03-16T01:57:41;6.50;99.90
17565;DHT22;62994;52.126;5.596;2023-03-16T02:00:13;6.60;99.90
17565;DHT22;62994;52.126;5.596;2023-03-16T02:02:46;6.70;99.90
17565;DHT22;62994;52.126;5.596;2023-03-16T02:05:18;6.80;99.90
17565;DHT22;62994;52.126;5.596;2023-03-16T02:07:46;6.70;99.90
17565;DHT22;62994;52.126;5.596;2023-03-16T02:10:15;6.60;99.90
17565;DHT22;62994;52.126;5.596;2023-03-16T02:12:47;6.60;99.90
17565;DHT22;62994;52.126;5.596;2023-03-16T02:15:16;6.50;99.90
17565;DHT22;62994;52.126;5.596;2023-03-16T02:17:45;6.50;99.90
17565;DHT22;62994;52.126;5.596;2023-03-16T02:20:23;6.50;99.90
17565;DHT22;62994;52.126;5.596;2023-03-16T02:22:56;6.40;99.90
17565;DHT22;62994;52.126;5.596;2023-03-16T02:25:38;6.40;99.90
17565;DHT22;62994;52.126;5.596;2023-03-16T02:28:13;6.40;99.90
17565;DHT22;62994;52.126;5.596;2023-03-16T02:30:43;6.40;99.90
17565;DHT22;62994;52.126;5.596;2023-03-16T02:33:11;6.40;99.90
17565;DHT22;62994;52.126;5.596;2023-03-16T02:35:39;6.30;99.90
17565;DHT22;62994;52.126;5.596;2023-03-16T02:38:08;6.30;99.90
17565;DHT22;62994;52.126;5.596;2023-03-16T02:40:36;6.30;99.90
17565;DHT22;62994;52.126;5.596;2023-03-16T02:43:06;6.30;99.90
17565;DHT22;62994;52.126;5.596;2023-03-16T02:45:39;6.30;99.90
17565;DHT22;62994;52.126;5.596;2023-03-16T02:48:13;6.30;99.90
17565;DHT22;62994;52.126;5.596;2023-03-16T02:50:44;6.30;99.90
17565;DHT22;62994;52.126;5.596;2023-03-16T02:53:13;6.30;99.90
17565;DHT22;62994;52.126;5.596;2023-03-16T02:55:40;6.40;99.90
17565;DHT22;62994;52.126;5.596;2023-03-16T02:58:07;6.30;99.90
17565;DHT22;62994;52.126;5.596;2023-03-16T03:00:34;6.40;99.90
17565;DHT22;62994;52.126;5.596;2023-03-16T03:03:01;6.40;99.90
17565;DHT22;62994;52.126;5.596;2023-03-16T03:05:30;6.40;99.90
17565;DHT22;62994;52.126;5.596;2023-03-16T03:07:59;6.40;99.90
17565;DHT22;62994;52.126;5.596;2023-03-16T03:10:26;6.40;99.90
17565;DHT22;62994;52.126;5.596;2023-03-16T03:12:53;6.40;99.90
17565;DHT22;62994;52.126;5.596;2023-03-16T03:15:22;6.40;99.90
17565;DHT22;62994;52.126;5.596;2023-03-16T03:17:50;6.40;99.90
17565;DHT22;62994;52.126;5.596;2023-03-16T03:20:17;6.40;99.90
17565;DHT22;62994;52.126;5.596;2023-03-16T03:22:47;6.40;99.90
17565;DHT22;62994;52.126;5.596;2023-03-16T03:25:16;6.40;99.90
17565;DHT22;62994;52.126;5.596;2023-03-16T03:27:43;6.40;99.90
17565;DHT22;62994;52.126;5.596;2023-03-16T03:30:16;6.40;99.90
17565;DHT22;62994;52.126;5.596;2023-03-16T03:32:44;6.40;99.90
17565;DHT22;62994;52.126;5.596;2023-03-16T03:35:13;6.50;99.90
17565;DHT22;62994;52.126;5.596;2023-03-16T03:37:44;6.60;99.90
17565;DHT22;62994;52.126;5.596;2023-03-16T03:40:16;6.60;99.90
17565;DHT22;62994;52.126;5.596;2023-03-16T03:42:43;6.60;99.90
17565;DHT22;62994;52.126;5.596;2023-03-16T03:45:11;6.50;99.90
17565;DHT22;62994;52.126;5.596;2023-03-16T03:47:44;6.50;99.90
17565;DHT22;62994;52.126;5.596;2023-03-16T03:50:12;6.50;99.90
17565;DHT22;62994;52.126;5.596;2023-03-16T03:52:39;6.40;99.90
17565;DHT22;62994;52.126;5.596;2023-03-16T03:55:08;6.40;99.90
17565;DHT22;62994;52.126;5.596;2023-03-16T03:57:36;6.40;99.90
17565;DHT22;62994;52.126;5.596;2023-03-16T04:00:09;6.30;99.90
17565;DHT22;62994;52.126;5.596;2023-03-16T04:02:36;6.30;99.90
17565;DHT22;62994;52.126;5.596;2023-03-16T04:05:04;6.30;99.90
17565;DHT22;62994;52.126;5.596;2023-03-16T04:07:34;6.30;99.90
17565;DHT22;62994;52.126;5.596;2023-03-16T04:10:01;6.30;99.90
17565;DHT22;62994;52.126;5.596;2023-03-16T04:12:30;6.20;99.90
17565;DHT22;62994;52.126;5.596;2023-03-16T04:14:58;6.30;99.90
17565;DHT22;62994;52.126;5.596;2023-03-16T04:17:25;6.30;99.90
17565;DHT22;62994;52.126;5.596;2023-03-16T04:20:03;6.20;99.90
17565;DHT22;62994;52.126;5.596;2023-03-16T04:22:40;6.20;99.90
17565;DHT22;62994;52.126;5.596;2023-03-16T04:25:08;6.20;99.90
17565;DHT22;62994;52.126;5.596;2023-03-16T04:27:37;6.20;99.90
17565;DHT22;62994;52.126;5.596;2023-03-16T04:30:14;6.10;99.90
17565;DHT22;62994;52.126;5.596;2023-03-16T04:32:43;6.10;99.90
17565;DHT22;62994;52.126;5.596;2023-03-16T04:35:12;6.10;99.90
17565;DHT22;62994;52.126;5.596;2023-03-16T04:37:40;6.10;99.90
17565;DHT22;62994;52.126;5.596;2023-03-16T04:40:12;6.10;99.90
17565;DHT22;62994;52.126;5.596;2023-03-16T04:42:46;6.10;99.90
17565;DHT22;62994;52.126;5.596;2023-03-16T04:45:14;6.10;99.90
17565;DHT22;62994;52.126;5.596;2023-03-16T04:47:42;6.10;99.90
17565;DHT22;62994;52.126;5.596;2023-03-16T04:50:10;6.10;99.90
17565;DHT22;62994;52.126;5.596;2023-03-16T04:52:37;6.10;99.90
17565;DHT22;62994;52.126;5.596;2023-03-16T04:55:05;6.10;99.90
17565;DHT22;62994;52.126;5.596;2023-03-16T04:57:32;6.10;99.90
17565;DHT22;62994;52.126;5.596;2023-03-16T05:00:01;6.10;99.90
17565;DHT22;62994;52.126;5.596;2023-03-16T05:02:34;6.10;99.90
17565;DHT22;62994;52.126;5.596;2023-03-16T05:05:06;6.00;99.90
17565;DHT22;62994;52.126;5.596;2023-03-16T05:07:34;6.00;99.90
17565;DHT22;62994;52.126;5.596;2023-03-16T05:10:01;6.00;99.90
17565;DHT22;62994;52.126;5.596;2023-03-16T05:12:28;6.00;99.90
17565;DHT22;62994;52.126;5.596;2023-03-16T05:15:02;6.00;99.90
17565;DHT22;62994;52.126;5.596;2023-03-16T05:17:31;6.10;99.90
17565;DHT22;62994;52.126;5.596;2023-03-16T05:19:59;6.10;99.90
17565;DHT22;62994;52.126;5.596;2023-03-16T05:22:26;6.10;99.90
17565;DHT22;62994;52.126;5.596;2023-03-16T05:24:53;6.10;99.90
17565;DHT22;62994;52.126;5.596;2023-03-16T05:27:20;6.10;99.90
17565;DHT22;62994;52.126;5.596;2023-03-16T05:29:49;6.00;99.90
17565;DHT22;62994;52.126;5.596;2023-03-16T05:32:18;6.10;99.90
17565;DHT22;62994;52.126;5.596;2023-03-16T05:34:54;6.10;99.90
17565;DHT22;62994;52.126;5.596;2023-03-16T05:37:23;6.10;99.90
17565;DHT22;62994;52.126;5.596;2023-03-16T05:39:54;6.10;99.90
17565;DHT22;62994;52.126;5.596;2023-03-16T05:42:22;6.10;99.90
17565;DHT22;62994;52.126;5.596;2023-03-16T05:44:53;6.10;99.90
17565;DHT22;62994;52.126;5.596;2023-03-16T05:47:21;6.20;99.90
17565;DHT22;62994;52.126;5.596;2023-03-16T05:49:48;6.20;99.90
17565;DHT22;62994;52.126;5.596;2023-03-16T05:52:20;6.10;99.90
17565;DHT22;62994;52.126;5.596;2023-03-16T05:54:52;6.20;99.90
17565;DHT22;62994;52.126;5.596;2023-03-16T05:57:24;6.20;99.90
17565;DHT22;62994;52.126;5.596;2023-03-16T05:59:51;6.20;99.90
17565;DHT22;62994;52.126;5.596;2023-03-16T06:02:20;6.20;99.90
17565;DHT22;62994;52.126;5.596;2023-03-16T06:04:47;6.20;99.90
17565;DHT22;62994;52.126;5.596;2023-03-16T06:07:15;6.20;99.90
17565;DHT22;62994;52.126;5.596;2023-03-16T06:09:46;6.20;99.90
17565;DHT22;62994;52.126;5.596;2023-03-16T06:12:13;6.20;99.90
17565;DHT22;62994;52.126;5.596;2023-03-16T06:14:40;6.20;99.90
17565;DHT22;62994;52.126;5.596;2023-03-16T06:17:07;6.10;99.90
17565;DHT22;62994;52.126;5.596;2023-03-16T06:19:40;6.20;99.90
17565;DHT22;62994;52.126;5.596;2023-03-16T06:22:07;6.20;99.90
17565;DHT22;62994;52.126;5.596;2023-03-16T06:24:36;6.10;99.90
17565;DHT22;62994;52.126;5.596;2023-03-16T06:27:10;6.20;99.90
17565;DHT22;62994;52.126;5.596;2023-03-16T06:29:42;6.20;99.90
17565;DHT22;62994;52.126;5.596;2023-03-16T06:32:09;6.20;99.90
17565;DHT22;62994;52.126;5.596;2023-03-16T06:34:43;6.20;99.90
17565;DHT22;62994;52.126;5.596;2023-03-16T06:37:10;6.20;99.90
17565;DHT22;62994;52.126;5.596;2023-03-16T06:39:43;6.20;99.90
17565;DHT22;62994;52.126;5.596;2023-03-16T06:42:10;6.20;99.90
17565;DHT22;62994;52.126;5.596;2023-03-16T06:44:38;6.20;99.90
17565;DHT22;62994;52.126;5.596;2023-03-16T06:47:06;6.20;99.90
17565;DHT22;62994;52.126;5.596;2023-03-16T06:49:33;6.20;99.90
17565;DHT22;62994;52.126;5.596;2023-03-16T06:52:02;6.20;99.90
17565;DHT22;62994;52.126;5.596;2023-03-16T06:54:29;6.20;99.90
17565;DHT22;62994;52.126;5.596;2023-03-16T06:57:03;6.30;99.90
17565;DHT22;62994;52.126;5.596;2023-03-16T06:59:31;6.30;99.90
17565;DHT22;62994;52.126;5.596;2023-03-16T07:01:59;6.30;99.90
17565;DHT22;62994;52.126;5.596;2023-03-16T07:04:26;6.30;99.90
17565;DHT22;62994;52.126;5.596;2023-03-16T07:06:53;6.30;99.90
17565;DHT22;62994;52.126;5.596;2023-03-16T07:09:28;6.30;99.90
17565;DHT22;62994;52.126;5.596;2023-03-16T07:11:56;6.30;99.90
17565;DHT22;62994;52.126;5.596;2023-03-16T07:14:23;6.40;99.90
17565;DHT22;62994;52.126;5.596;2023-03-16T07:16:54;6.40;99.90
17565;DHT22;62994;52.126;5.596;2023-03-16T07:19:21;6.40;99.90
17565;DHT22;62994;52.126;5.596;2023-03-16T07:21:50;6.40;99.90
17565;DHT22;62994;52.126;5.596;2023-03-16T07:24:20;6.40;99.90
17565;DHT22;62994;52.126;5.596;2023-03-16T07:26:49;6.40;99.90
17565;DHT22;62994;52.126;5.596;2023-03-16T07:29:17;6.50;99.90
17565;DHT22;62994;52.126;5.596;2023-03-16T07:31:44;6.50;99.90
17565;DHT22;62994;52.126;5.596;2023-03-16T07:34:11;6.50;99.90
17565;DHT22;62994;52.126;5.596;2023-03-16T07:36:39;6.50;99.90
17565;DHT22;62994;52.126;5.596;2023-03-16T07:39:06;6.50;99.90
17565;DHT22;62994;52.126;5.596;2023-03-16T07:41:33;6.50;99.90
17565;DHT22;62994;52.126;5.596;2023-03-16T07:44:06;6.50;99.90
17565;DHT22;62994;52.126;5.596;2023-03-16T07:46:33;6.50;99.90
17565;DHT22;62994;52.126;5.596;2023-03-16T07:49:05;6.60;99.90
17565;DHT22;62994;52.126;5.596;2023-03-16T07:51:34;6.60;99.90
17565;DHT22;62994;52.126;5.596;2023-03-16T07:54:01;6.60;99.90
17565;DHT22;62994;52.126;5.596;2023-03-16T07:56:29;6.60;99.90
17565;DHT22;62994;52.126;5.596;2023-03-16T07:58:56;6.60;99.90
17565;DHT22;62994;52.126;5.596;2023-03-16T08:01:24;6.60;99.90
17565;DHT22;62994;52.126;5.596;2023-03-16T08:03:51;6.60;99.90
17565;DHT22;62994;52.126;5.596;2023-03-16T08:06:19;6.70;99.90
17565;DHT22;62994;52.126;5.596;2023-03-16T08:08:47;6.70;99.90
17565;DHT22;62994;52.126;5.596;2023-03-16T08:11:15;6.70;99.90
17565;DHT22;62994;52.126;5.596;2023-03-16T08:13:50;6.70;99.90
17565;DHT22;62994;52.126;5.596;2023-03-16T08:16:20;6.70;99.90
17565;DHT22;62994;52.126;5.596;2023-03-16T08:18:48;6.70;99.90
17565;DHT22;62994;52.126;5.596;2023-03-16T08:21:16;6.70;99.90
17565;DHT22;62994;52.126;5.596;2023-03-16T08:23:43;6.70;99.90
17565;DHT22;62994;52.126;5.596;2023-03-16T08:26:14;6.80;99.90
17565;DHT22;62994;52.126;5.596;2023-03-16T08:28:42;6.80;99.90
17565;DHT22;62994;52.126;5.596;2023-03-16T08:31:12;6.90;99.90
17565;DHT22;62994;52.126;5.596;2023-03-16T08:33:39;7.00;99.90
17565;DHT22;62994;52.126;5.596;2023-03-16T08:36:10;7.10;99.90
17565;DHT22;62994;52.126;5.596;2023-03-16T08:38:38;7.10;99.90
17565;DHT22;62994;52.126;5.596;2023-03-16T08:41:06;7.10;99.90
17565;DHT22;62994;52.126;5.596;2023-03-16T08:43:34;7.10;99.90
17565;DHT22;62994;52.126;5.596;2023-03-16T08:46:06;7.10;99.90
17565;DHT22;62994;52.126;5.596;2023-03-16T08:48:36;7.10;99.90
17565;DHT22;62994;52.126;5.596;2023-03-16T08:51:09;7.20;99.90
17565;DHT22;62994;52.126;5.596;2023-03-16T08:53:41;7.20;99.90
17565;DHT22;62994;52.126;5.596;2023-03-16T08:56:10;7.20;99.90
17565;DHT22;62994;52.126;5.596;2023-03-16T08:58:41;7.30;99.90
17565;DHT22;62994;52.126;5.596;2023-03-16T09:01:11;7.30;99.90
17565;DHT22;62994;52.126;5.596;2023-03-16T09:03:38;7.30;99.90
17565;DHT22;62994;52.126;5.596;2023-03-16T09:06:10;7.30;99.90
17565;DHT22;62994;52.126;5.596;2023-03-16T09:08:40;7.40;99.90
17565;DHT22;62994;52.126;5.596;2023-03-16T09:11:11;7.40;99.90
17565;DHT22;62994;52.126;5.596;2023-03-16T09:13:39;7.40;99.90
17565;DHT22;62994;52.126;5.596;2023-03-16T09:16:08;7.50;99.90
17565;DHT22;62994;52.126;5.596;2023-03-16T09:18:38;7.50;99.90
17565;DHT22;62994;52.126;5.596;2023-03-16T09:21:07;7.50;99.90
17565;DHT22;62994;52.126;5.596;2023-03-16T09:23:40;7.60;99.90
17565;DHT22;62994;52.126;5.596;2023-03-16T09:26:13;7.60;99.90
17565;DHT22;62994;52.126;5.596;2023-03-16T09:28:45;7.60;99.90
17565;DHT22;62994;52.126;5.596;2023-03-16T09:31:17;7.60;99.90
17565;DHT22;62994;52.126;5.596;2023-03-16T09:33:47;7.70;99.90
17565;DHT22;62994;52.126;5.596;2023-03-16T09:36:14;7.70;99.90
17565;DHT22;62994;52.126;5.596;2023-03-16T09:38:43;7.70;99.90
17565;DHT22;62994;52.126;5.596;2023-03-16T09:41:22;7.70;99.90
17565;DHT22;62994;52.126;5.596;2023-03-16T09:44:02;7.70;99.90
17565;DHT22;62994;52.126;5.596;2023-03-16T09:46:33;7.70;99.90
17565;DHT22;62994;52.126;5.596;2023-03-16T09:49:10;7.70;99.90
17565;DHT22;62994;52.126;5.596;2023-03-16T09:51:42;7.70;99.90
17565;DHT22;62994;52.126;5.596;2023-03-16T09:54:19;7.70;99.90
17565;DHT22;62994;52.126;5.596;2023-03-16T09:56:53;7.80;99.90
17565;DHT22;62994;52.126;5.596;2023-03-16T09:59:23;7.80;99.90
17565;DHT22;62994;52.126;5.596;2023-03-16T10:02:08;7.80;99.90
17565;DHT22;62994;52.126;5.596;2023-03-16T10:04:51;7.80;99.90
17565;DHT22;62994;52.126;5.596;2023-03-16T10:07:29;7.80;99.90
17565;DHT22;62994;52.126;5.596;2023-03-16T10:10:13;7.90;99.90
17565;DHT22;62994;52.126;5.596;2023-03-16T10:12:48;8.00;99.90
17565;DHT22;62994;52.126;5.596;2023-03-16T10:15:19;8.10;99.90
17565;DHT22;62994;52.126;5.596;2023-03-16T10:17:55;8.10;99.90
17565;DHT22;62994;52.126;5.596;2023-03-16T10:20:27;8.10;99.90
17565;DHT22;62994;52.126;5.596;2023-03-16T10:22:58;8.20;99.90
17565;DHT22;62994;52.126;5.596;2023-03-16T10:25:41;8.20;99.90
17565;DHT22;62994;52.126;5.596;2023-03-16T10:28:14;8.30;99.90
17565;DHT22;62994;52.126;5.596;2023-03-16T10:30:41;8.40;99.90
17565;DHT22;62994;52.126;5.596;2023-03-16T10:33:16;8.50;99.90
17565;DHT22;62994;52.126;5.596;2023-03-16T10:35:46;8.60;99.90
17565;DHT22;62994;52.126;5.596;2023-03-16T10:38:32;8.60;99.90
17565;DHT22;62994;52.126;5.596;2023-03-16T10:41:13;8.70;99.90
17565;DHT22;62994;52.126;5.596;2023-03-16T10:43:48;8.80;99.90
17565;DHT22;62994;52.126;5.596;2023-03-16T10:46:21;8.90;99.90
17565;DHT22;62994;52.126;5.596;2023-03-16T10:48:53;9.00;99.90
17565;DHT22;62994;52.126;5.596;2023-03-16T10:51:28;9.10;99.90
17565;DHT22;62994;52.126;5.596;2023-03-16T10:54:06;9.20;99.90
17565;DHT22;62994;52.126;5.596;2023-03-16T10:57:00;9.30;99.90
17565;DHT22;62994;52.126;5.596;2023-03-16T10:59:29;9.40;99.90
17565;DHT22;62994;52.126;5.596;2023-03-16T11:02:13;9.50;99.90
17565;DHT22;62994;52.126;5.596;2023-03-16T11:04:41;9.60;99.90
17565;DHT22;62994;52.126;5.596;2023-03-16T11:07:15;9.70;99.90
17565;DHT22;62994;52.126;5.596;2023-03-16T11:09:42;9.80;99.90
17565;DHT22;62994;52.126;5.596;2023-03-16T11:12:21;9.90;99.90
17565;DHT22;62994;52.126;5.596;2023-03-16T11:14:49;10.00;99.90
17565;DHT22;62994;52.126;5.596;2023-03-16T11:17:24;10.00;99.90
17565;DHT22;62994;52.126;5.596;2023-03-16T11:20:04;10.10;99.90
17565;DHT22;62994;52.126;5.596;2023-03-16T11:22:37;10.20;99.90
17565;DHT22;62994;52.126;5.596;2023-03-16T11:25:12;10.20;99.90
17565;DHT22;62994;52.126;5.596;2023-03-16T11:28:00;10.30;99.90
17565;DHT22;62994;52.126;5.596;2023-03-16T11:30:34;10.20;99.90
17565;DHT22;62994;52.126;5.596;2023-03-16T11:33:07;10.30;99.90
17565;DHT22;62994;52.126;5.596;2023-03-16T11:35:46;10.30;99.90
17565;DHT22;62994;52.126;5.596;2023-03-16T11:38:18;10.30;99.90
17565;DHT22;62994;52.126;5.596;2023-03-16T11:40:56;10.30;99.90
17565;DHT22;62994;52.126;5.596;2023-03-16T11:43:46;10.40;99.90
17565;DHT22;62994;52.126;5.596;2023-03-16T11:46:17;10.40;99.90
17565;DHT22;62994;52.126;5.596;2023-03-16T11:48:56;10.60;99.90
17565;DHT22;62994;52.126;5.596;2023-03-16T11:51:34;10.60;99.90
17565;DHT22;62994;52.126;5.596;2023-03-16T11:56:58;10.70;99.90
17565;DHT22;62994;52.126;5.596;2023-03-16T11:59:48;10.70;99.90
17565;DHT22;62994;52.126;5.596;2023-03-16T12:02:41;10.70;99.90
17565;DHT22;62994;52.126;5.596;2023-03-16T12:05:32;10.70;99.90
17565;DHT22;62994;52.126;5.596;2023-03-16T12:08:14;10.80;99.90
17565;DHT22;62994;52.126;5.596;2023-03-16T12:10:54;10.80;99.90
17565;DHT22;62994;52.126;5.596;2023-03-16T12:13:32;10.80;99.90
17565;DHT22;62994;52.126;5.596;2023-03-16T12:16:06;10.90;99.90
17565;DHT22;62994;52.126;5.596;2023-03-16T12:18:41;11.00;99.90
17565;DHT22;62994;52.126;5.596;2023-03-16T12:21:26;11.00;99.90
17565;DHT22;62994;52.126;5.596;2023-03-16T12:23:58;11.10;99.90
17565;DHT22;62994;52.126;5.596;2023-03-16T12:26:35;11.20;99.90
17565;DHT22;62994;52.126;5.596;2023-03-16T12:29:13;11.20;99.90
17565;DHT22;62994;52.126;5.596;2023-03-16T12:31:45;11.30;99.90
17565;DHT22;62994;52.126;5.596;2023-03-16T12:34:21;11.40;99.90
17565;DHT22;62994;52.126;5.596;2023-03-16T12:37:15;11.60;99.90
17565;DHT22;62994;52.126;5.596;2023-03-16T12:40:04;11.80;99.90
17565;DHT22;62994;52.126;5.596;2023-03-16T12:42:48;12.00;99.90
17565;DHT22;62994;52.126;5.596;2023-03-16T12:45:23;12.10;99.90
17565;DHT22;62994;52.126;5.596;2023-03-16T12:47:59;12.20;99.90
17565;DHT22;62994;52.126;5.596;2023-03-16T12:50:32;12.40;99.90
17565;DHT22;62994;52.126;5.596;2023-03-16T12:53:00;12.50;99.90
17565;DHT22;62994;52.126;5.596;2023-03-16T12:55:43;12.60;99.90
17565;DHT22;62994;52.126;5.596;2023-03-16T12:58:15;12.80;99.90
17565;DHT22;62994;52.126;5.596;2023-03-16T13:00:55;12.90;99.90
17565;DHT22;62994;52.126;5.596;2023-03-16T13:03:24;13.00;99.90
17565;DHT22;62994;52.126;5.596;2023-03-16T13:05:56;13.20;99.90
17565;DHT22;62994;52.126;5.596;2023-03-16T13:08:40;13.30;99.90
17565;DHT22;62994;52.126;5.596;2023-03-16T13:11:10;13.50;99.90
17565;DHT22;62994;52.126;5.596;2023-03-16T13:13:48;13.60;99.90
17565;DHT22;62994;52.126;5.596;2023-03-16T13:16:25;13.70;99.90
17565;DHT22;62994;52.126;5.596;2023-03-16T13:18:55;13.70;99.90
17565;DHT22;62994;52.126;5.596;2023-03-16T13:21:34;13.80;99.90
17565;DHT22;62994;52.126;5.596;2023-03-16T13:24:24;13.90;99.90
17565;DHT22;62994;52.126;5.596;2023-03-16T13:26:57;14.00;99.90
17565;DHT22;62994;52.126;5.596;2023-03-16T13:29:37;14.00;99.90
17565;DHT22;62994;52.126;5.596;2023-03-16T13:32:16;14.10;99.90
17565;DHT22;62994;52.126;5.596;2023-03-16T13:34:47;14.10;99.90
17565;DHT22;62994;52.126;5.596;2023-03-16T13:37:17;14.20;99.90
17565;DHT22;62994;52.126;5.596;2023-03-16T13:42:40;14.30;99.90
17565;DHT22;62994;52.126;5.596;2023-03-16T13:45:17;14.40;99.90
17565;DHT22;62994;52.126;5.596;2023-03-16T13:47:47;14.50;99.90
17565;DHT22;62994;52.126;5.596;2023-03-16T13:50:17;14.60;99.90
17565;DHT22;62994;52.126;5.596;2023-03-16T13:52:54;14.60;99.90
17565;DHT22;62994;52.126;5.596;2023-03-16T13:55:26;14.70;99.90
17565;DHT22;62994;52.126;5.596;2023-03-16T13:57:55;14.80;99.90
17565;DHT22;62994;52.126;5.596;2023-03-16T14:00:28;14.90;99.90
17565;DHT22;62994;52.126;5.596;2023-03-16T14:03:08;15.00;99.90
17565;DHT22;62994;52.126;5.596;2023-03-16T14:05:40;15.00;99.90
17565;DHT22;62994;52.126;5.596;2023-03-16T14:08:17;15.10;99.90
17565;DHT22;62994;52.126;5.596;2023-03-16T14:10:46;15.10;99.90
17565;DHT22;62994;52.126;5.596;2023-03-16T14:13:29;15.10;99.90
17565;DHT22;62994;52.126;5.596;2023-03-16T14:16:00;15.20;99.90
17565;DHT22;62994;52.126;5.596;2023-03-16T14:18:44;15.30;99.90
17565;DHT22;62994;52.126;5.596;2023-03-16T14:21:20;15.40;99.90
17565;DHT22;62994;52.126;5.596;2023-03-16T14:23:55;15.50;99.90
17565;DHT22;62994;52.126;5.596;2023-03-16T14:26:23;15.50;99.90
17565;DHT22;62994;52.126;5.596;2023-03-16T14:29:00;15.60;99.90
17565;DHT22;62994;52.126;5.596;2023-03-16T14:31:33;15.60;99.90
17565;DHT22;62994;52.126;5.596;2023-03-16T14:34:05;15.60;99.90
17565;DHT22;62994;52.126;5.596;2023-03-16T14:36:36;15.70;99.90
17565;DHT22;62994;52.126;5.596;2023-03-16T14:39:10;15.80;99.90
17565;DHT22;62994;52.126;5.596;2023-03-16T14:41:48;15.80;99.90
17565;DHT22;62994;52.126;5.596;2023-03-16T14:44:19;15.80;99.90
17565;DHT22;62994;52.126;5.596;2023-03-16T14:46:47;15.90;99.90
17565;DHT22;62994;52.126;5.596;2023-03-16T14:49:25;15.90;99.90
17565;DHT22;62994;52.126;5.596;2023-03-16T14:51:57;16.00;99.90
17565;DHT22;62994;52.126;5.596;2023-03-16T14:54:25;16.10;99.90
17565;DHT22;62994;52.126;5.596;2023-03-16T14:57:22;16.10;99.90
17565;DHT22;62994;52.126;5.596;2023-03-16T14:59:55;16.10;99.90
17565;DHT22;62994;52.126;5.596;2023-03-16T15:02:26;16.10;99.90
17565;DHT22;62994;52.126;5.596;2023-03-16T15:04:55;16.00;99.90
17565;DHT22;62994;52.126;5.596;2023-03-16T15:07:26;15.80;99.90
17565;DHT22;62994;52.126;5.596;2023-03-16T15:09:55;15.60;99.90
17565;DHT22;62994;52.126;5.596;2023-03-16T15:12:23;15.60;99.90
17565;DHT22;62994;52.126;5.596;2023-03-16T15:14:50;15.50;99.90
17565;DHT22;62994;52.126;5.596;2023-03-16T15:17:35;15.40;99.90
17565;DHT22;62994;52.126;5.596;2023-03-16T15:20:03;15.40;99.90
17565;DHT22;62994;52.126;5.596;2023-03-16T15:22:35;15.30;99.90
17565;DHT22;62994;52.126;5.596;2023-03-16T15:25:18;15.10;99.90
17565;DHT22;62994;52.126;5.596;2023-03-16T15:27:51;15.20;99.90
17565;DHT22;62994;52.126;5.596;2023-03-16T15:30:21;15.20;99.90
17565;DHT22;62994;52.126;5.596;2023-03-16T15:32:50;15.20;99.90
17565;DHT22;62994;52.126;5.596;2023-03-16T15:35:18;15.10;99.90
17565;DHT22;62994;52.126;5.596;2023-03-16T15:37:47;15.10;99.90
17565;DHT22;62994;52.126;5.596;2023-03-16T15:40:17;15.10;99.90
17565;DHT22;62994;52.126;5.596;2023-03-16T15:42:48;15.00;99.90
17565;DHT22;62994;52.126;5.596;2023-03-16T15:45:16;15.00;99.90
17565;DHT22;62994;52.126;5.596;2023-03-16T15:47:46;15.00;99.90
17565;DHT22;62994;52.126;5.596;2023-03-16T15:50:14;15.00;99.90
17565;DHT22;62994;52.126;5.596;2023-03-16T15:52:50;15.00;99.90
17565;DHT22;62994;52.126;5.596;2023-03-16T15:55:32;14.90;99.90
17565;DHT22;62994;52.126;5.596;2023-03-16T15:58:05;15.00;99.90
17565;DHT22;62994;52.126;5.596;2023-03-16T16:00:34;14.90;99.90
17565;DHT22;62994;52.126;5.596;2023-03-16T16:03:04;14.80;99.90
17565;DHT22;62994;52.126;5.596;2023-03-16T16:05:32;14.90;99.90
17565;DHT22;62994;52.126;5.596;2023-03-16T16:08:02;14.80;99.90
17565;DHT22;62994;52.126;5.596;2023-03-16T16:10:30;14.70;99.90
17565;DHT22;62994;52.126;5.596;2023-03-16T16:12:59;14.70;99.90
17565;DHT22;62994;52.126;5.596;2023-03-16T16:15:32;14.70;99.90